Belfast Aerodrome


Codes: FABH/
Name: Belfast Aerodrome
City: Belfast
Country: South Africa
Elevation: 6250 ft.

Photos at Belfast Aerodrome


   Photos courtesy of SpottingLog. You can add your own sightings and photos by signing up for a free trial today.



No photos found.

Weather at Belfast Aerodrome


Time (UTC)DescriptionTempratureWindCloud coverageVisibilityPressureHumidity
21-Jun-2024 12:00Clear Sky17°C4 mph, NW0%10000m1027hPa28%
21-Jun-2024 15:00Clear Sky14°C4 mph, NW0%10000m1027hPa36%
21-Jun-2024 18:00Clear Sky7°C2 mph, N2%10000m1028hPa63%
21-Jun-2024 21:00Scattered Clouds6°C2 mph, N37%10000m1029hPa73%
22-Jun-2024 00:00Scattered Clouds5°C2 mph, NW31%10000m1028hPa76%
22-Jun-2024 03:00Clear Sky4°C2 mph, NW5%10000m1029hPa78%
22-Jun-2024 06:00Clear Sky7°C2 mph, SW5%10000m1030hPa62%
22-Jun-2024 09:00Clear Sky16°C9 mph, S0%10000m1026hPa26%
22-Jun-2024 12:00Clear Sky20°C9 mph, SE0%10000m1023hPa14%
22-Jun-2024 15:00Clear Sky15°C11 mph, E0%10000m1025hPa19%
22-Jun-2024 18:00Clear Sky8°C9 mph, SE0%10000m1030hPa38%
22-Jun-2024 21:00Clear Sky5°C7 mph, SE0%10000m1032hPa78%
23-Jun-2024 00:00Scattered Clouds7°C11 mph, E30%10000m1031hPa79%
23-Jun-2024 03:00Overcast Clouds8°C11 mph, E95%10000m1031hPa72%
23-Jun-2024 06:00Broken Clouds7°C11 mph, E67%10000m1032hPa79%
23-Jun-2024 09:00Scattered Clouds13°C11 mph, E28%10000m1031hPa47%
23-Jun-2024 12:00Few Clouds15°C9 mph, NE14%10000m1028hPa41%
23-Jun-2024 15:00Clear Sky11°C7 mph, NE6%10000m1029hPa58%
23-Jun-2024 18:00Clear Sky6°C4 mph, E4%10000m1032hPa94%
23-Jun-2024 21:00Clear Sky5°C4 mph, NE9%9512m1033hPa97%
24-Jun-2024 00:00Few Clouds4°C4 mph, NE21%10000m1032hPa97%
24-Jun-2024 03:00Few Clouds4°C2 mph, NE15%10000m1032hPa93%
24-Jun-2024 06:00Few Clouds7°C2 mph, E11%10000m1032hPa79%
24-Jun-2024 09:00Clear Sky15°C7 mph, NE1%10000m1029hPa39%
24-Jun-2024 12:00Clear Sky17°C4 mph, NE0%10000m1026hPa31%
24-Jun-2024 15:00Clear Sky13°C4 mph, NE0%10000m1027hPa45%
24-Jun-2024 18:00Clear Sky7°C2 mph, NE0%10000m1031hPa76%
24-Jun-2024 21:00Clear Sky6°C2 mph, N0%10000m1031hPa82%
25-Jun-2024 00:00Clear Sky5°C2 mph, NW0%10000m1030hPa82%
25-Jun-2024 03:00Clear Sky5°C2 mph, SW0%10000m1030hPa84%
25-Jun-2024 06:00Clear Sky8°C2 mph, S0%10000m1031hPa65%
25-Jun-2024 09:00Clear Sky16°C9 mph, SE0%10000m1028hPa32%
25-Jun-2024 12:00Clear Sky18°C11 mph, E0%10000m1025hPa27%
25-Jun-2024 15:00Clear Sky13°C13 mph, E6%10000m1028hPa49%
25-Jun-2024 18:00Clear Sky7°C9 mph, E7%10000m1032hPa88%
25-Jun-2024 21:00Few Clouds6°C9 mph, SE21%2533m1032hPa96%
26-Jun-2024 00:00Broken Clouds7°C11 mph, SE56%10000m1032hPa85%
26-Jun-2024 03:00Overcast Clouds6°C7 mph, SE90%10000m1032hPa91%
26-Jun-2024 06:00Broken Clouds6°C7 mph, SE70%10000m1033hPa91%
26-Jun-2024 09:00Few Clouds13°C7 mph, SE22%10000m1031hPa45%